Alden, Alabama
Current Conditions -  °F | °C
As of 4:53 PM on Thursday 18 Dec 2014 (Local Time) from KBHM Reporting Station
Scattered Clouds Scattered Clouds  
Wind Chill: 45°   Ceiling: Unl
Heat Index: 45°   Visibility: 10mi
Dew Point: 34°   Wind: 3mph
Humidity: 65%   Direction: 360°N
Pressure: 30.17"   Gusts: NA
Location:  33.652°N, 86.9784°W
Report Text: KBHM 182253Z 36003KT 10SM FEW042 SCT250 07/01 A3017 RMK AO2 SLP220 T00720011
Loading
Personal Weather Stations






























Interactive Weather Map New forecast layout! Learn more

10-Day Weather Forecast

Advertisements
Track Severe Weather on mobile